Time;durP1;ratioP1;P1;durP2;ratioP2;P2;SDS_P1;SDS_P2;PMS_P1;PMS_P2;Temp;Humidity;BMP_temperature;BMP_pressure;BME280_temperature;BME280_humidity;BME280_pressure;Samples;Min_cycle;Max_cycle;Signal;HPM_P1;HPM_P2
2022/08/10 00:00:44;;;;;;;2.05;1.58;;;21.70;66.40;;;;;;5029350;28;20100;-72
2022/08/10 00:03:10;;;;;;;3.25;1.30;;;21.70;66.50;;;;;;5018972;28;20019;-70
2022/08/10 00:05:35;;;;;;;2.55;1.35;;;21.70;66.70;;;;;;5022104;28;20120;-72
2022/08/10 00:08:02;;;;;;;2.97;1.35;;;21.70;66.80;;;;;;5028031;28;20382;-70
2022/08/10 00:10:27;;;;;;;2.67;1.30;;;21.60;66.80;;;;;;5027504;28;20052;-70
2022/08/10 00:12:53;;;;;;;3.38;1.27;;;21.60;67.00;;;;;;5029783;28;20068;-72
2022/08/10 00:15:21;;;;;;;2.65;1.35;;;21.50;67.10;;;;;;5029882;28;20030;-70
2022/08/10 00:17:47;;;;;;;3.20;1.42;;;21.50;67.20;;;;;;5028076;28;20025;-70
2022/08/10 00:20:13;;;;;;;4.72;1.42;;;21.60;67.20;;;;;;5029021;28;20048;-70
2022/08/10 00:22:38;;;;;;;2.15;1.40;;;21.50;67.10;;;;;;5026377;28;20096;-70
2022/08/10 00:25:05;;;;;;;1.67;1.30;;;21.50;67.30;;;;;;5033684;28;20096;-70
2022/08/10 00:27:31;;;;;;;5.38;1.65;;;21.50;67.30;;;;;;5025394;28;20124;-70
2022/08/10 00:29:57;;;;;;;3.35;1.40;;;21.50;67.40;;;;;;5031715;28;20179;-70
2022/08/10 00:32:23;;;;;;;3.45;1.30;;;21.50;67.30;;;;;;5024967;28;20108;-70
2022/08/10 00:34:49;;;;;;;2.92;1.40;;;21.50;67.40;;;;;;5026514;28;20072;-70
2022/08/10 00:37:16;;;;;;;2.20;1.35;;;21.40;67.50;;;;;;5024921;28;20021;-70
2022/08/10 00:39:41;;;;;;;2.63;1.40;;;21.40;67.60;;;;;;5030813;28;20084;-70
2022/08/10 00:42:09;;;;;;;4.50;1.70;;;21.40;67.70;;;;;;5030505;28;20022;-70
2022/08/10 00:44:37;;;;;;;3.75;1.40;;;21.30;67.70;;;;;;5027416;28;20104;-75
2022/08/10 00:47:03;;;;;;;1.52;1.25;;;21.30;67.70;;;;;;5029833;28;20109;-77
2022/08/10 00:49:29;;;;;;;2.38;1.05;;;21.30;67.80;;;;;;5031494;28;20394;-76
2022/08/10 00:51:55;;;;;;;3.95;1.77;;;21.20;68.40;;;;;;5026972;28;20029;-77
2022/08/10 00:54:21;;;;;;;2.28;1.45;;;21.20;68.00;;;;;;5030890;28;20025;-77
2022/08/10 00:56:46;;;;;;;3.55;1.50;;;21.10;68.00;;;;;;5024671;28;20022;-77
2022/08/10 00:59:12;;;;;;;3.67;1.50;;;21.10;68.20;;;;;;5028215;28;20025;-77
2022/08/10 01:01:38;;;;;;;4.63;1.95;;;21.10;68.40;;;;;;5030471;28;20029;-77
2022/08/10 01:04:06;;;;;;;8.18;1.75;;;21.10;68.40;;;;;;5029260;28;20021;-77
2022/08/10 01:06:53;;;;;;;4.72;1.85;;;21.00;68.50;;;;;;5023308;28;20021;-77
2022/08/10 01:09:24;;;;;;;5.40;1.73;;;21.00;68.70;;;;;;5031739;28;20124;-78
2022/08/10 01:11:57;;;;;;;4.88;1.65;;;20.90;68.80;;;;;;5031679;28;20036;-76
2022/08/10 01:14:34;;;;;;;1.90;1.65;;;20.90;68.90;;;;;;5027578;28;20036;-76
2022/08/10 01:17:05;;;;;;;3.58;1.30;;;20.80;69.00;;;;;;5029912;28;20464;-76
2022/08/10 01:19:49;;;;;;;2.85;1.60;;;20.80;69.20;;;;;;5032366;28;20482;-77
2022/08/10 01:22:34;;;;;;;;;;;20.80;69.50;;;;;;5028104;28;20018;-77
2022/08/10 01:25:18;;;;;;;3.15;1.40;;;20.70;69.50;;;;;;5028843;28;19917;-77
2022/08/10 01:28:14;;;;;;;5.75;1.30;;;20.70;69.60;;;;;;5024402;28;20040;-76
2022/08/10 01:30:41;;;;;;;4.25;1.42;;;20.70;69.90;;;;;;5027401;28;20355;-77
2022/08/10 01:33:34;;;;;;;2.15;1.40;;;20.60;69.90;;;;;;5028609;28;20040;-77
2022/08/10 01:36:22;;;;;;;4.35;1.75;;;20.60;70.20;;;;;;5026236;28;21767;-77
2022/08/10 01:38:50;;;;;;;3.30;1.58;;;20.50;70.30;;;;;;5025448;28;20087;-78
2022/08/10 01:41:26;;;;;;;3.75;1.50;;;20.50;70.50;;;;;;5029095;28;20488;-76
2022/08/10 01:44:00;;;;;;;5.03;2.10;;;20.50;70.60;;;;;;5029608;28;20498;-77
2022/08/10 01:46:27;;;;;;;2.30;1.52;;;20.40;70.60;;;;;;5026503;28;20110;-77
2022/08/10 01:48:56;;;;;;;5.60;1.80;;;20.40;70.80;;;;;;5029886;28;20060;-77
2022/08/10 01:51:31;;;;;;;3.90;1.30;;;20.40;71.00;;;;;;5031655;28;20048;-77
2022/08/10 01:54:01;;;;;;;4.22;1.70;;;20.40;71.00;;;;;;5028830;28;20084;-78
2022/08/10 01:56:32;;;;;;;2.92;1.52;;;20.30;71.10;;;;;;5032836;28;20482;-78
2022/08/10 01:59:01;;;;;;;3.25;1.50;;;20.30;71.30;;;;;;5032525;28;20029;-78
2022/08/10 02:01:37;;;;;;;4.00;1.83;;;20.30;71.40;;;;;;5033181;28;20024;-77
2022/08/10 02:04:06;;;;;;;4.03;1.50;;;20.30;71.60;;;;;;5031243;28;20061;-77
2022/08/10 02:06:46;;;;;;;1.88;1.42;;;20.20;71.60;;;;;;5046622;28;20026;-78
2022/08/10 02:09:16;;;;;;;8.82;2.15;;;20.20;71.90;;;;;;5028867;28;20493;-77
2022/08/10 02:11:43;;;;;;;4.38;1.83;;;20.20;72.00;;;;;;5031655;28;20033;-77
2022/08/10 02:14:12;;;;;;;3.47;1.75;;;20.10;72.00;;;;;;5029347;28;20025;-77
2022/08/10 02:16:40;;;;;;;4.20;1.70;;;20.10;72.10;;;;;;5026052;28;20021;-77
2022/08/10 02:19:07;;;;;;;4.38;1.92;;;20.10;72.40;;;;;;5029193;28;20068;-78
2022/08/10 02:21:33;;;;;;;1.90;1.42;;;20.10;72.40;;;;;;5035296;28;20017;-77
2022/08/10 02:24:01;;;;;;;5.13;1.80;;;20.10;72.50;;;;;;5026978;28;20029;-77
2022/08/10 02:26:27;;;;;;;4.60;1.63;;;20.00;72.60;;;;;;5029188;28;20113;-78
2022/08/10 02:28:54;;;;;;;5.72;2.03;;;20.00;72.60;;;;;;5029095;28;20036;-77
2022/08/10 02:31:23;;;;;;;5.05;1.75;;;20.00;72.70;;;;;;5027064;28;20120;-77
2022/08/10 02:33:53;;;;;;;3.25;1.88;;;20.00;72.80;;;;;;5027889;28;20436;-77
2022/08/10 02:36:21;;;;;;;4.05;1.67;;;20.00;73.00;;;;;;5026307;28;20033;-77
2022/08/10 02:38:52;;;;;;;2.40;1.58;;;20.00;73.00;;;;;;5027059;28;20116;-77
2022/08/10 02:41:30;;;;;;;7.28;2.25;;;20.00;73.30;;;;;;5031789;28;20072;-78
2022/08/10 02:44:06;;;;;;;2.45;1.80;;;19.90;73.20;;;;;;5026935;28;20024;-77
2022/08/10 02:46:45;;;;;;;3.10;2.05;;;19.90;73.40;;;;;;5028088;28;20057;-76
2022/08/10 02:49:25;;;;;;;2.85;1.70;;;19.80;73.50;;;;;;5025214;28;20309;-77
2022/08/10 02:52:00;;;;;;;3.47;1.90;;;19.80;73.70;;;;;;5025699;28;20029;-77
2022/08/10 02:54:31;;;;;;;5.38;2.00;;;19.70;74.00;;;;;;5026168;28;20432;-77
2022/08/10 02:57:26;;;;;;;4.22;1.70;;;19.80;74.10;;;;;;5029246;28;20028;-77
2022/08/10 02:59:58;;;;;;;3.17;2.10;;;19.70;74.50;;;;;;5025855;28;20044;-76
2022/08/10 03:02:29;;;;;;;3.73;1.93;;;19.70;74.40;;;;;;5027814;28;20021;-76
2022/08/10 03:05:02;;;;;;;2.13;1.42;;;19.70;74.50;;;;;;5026053;28;20037;-75
2022/08/10 03:07:34;;;;;;;4.05;2.00;;;19.60;74.60;;;;;;5028246;28;20022;-76
2022/08/10 03:10:02;;;;;;;5.03;2.03;;;19.60;75.20;;;;;;5028329;28;20037;-76
2022/08/10 03:12:30;;;;;;;2.90;2.20;;;19.60;74.60;;;;;;5026452;28;20032;-76
2022/08/10 03:14:56;;;;;;;3.85;1.90;;;19.60;74.60;;;;;;5027592;28;20041;-77
2022/08/10 03:17:23;;;;;;;3.75;1.70;;;19.60;74.80;;;;;;5028296;28;20033;-76
2022/08/10 03:19:50;;;;;;;4.22;1.65;;;19.60;74.90;;;;;;5024822;28;20042;-77
2022/08/10 03:22:17;;;;;;;3.88;1.65;;;19.60;74.90;;;;;;5029761;28;20021;-77
2022/08/10 03:24:44;;;;;;;5.60;1.75;;;19.60;74.60;;;;;;5026876;28;20511;-77
2022/08/10 03:27:12;;;;;;;1.98;1.70;;;19.60;74.50;;;;;;5028576;28;20475;-77
2022/08/10 03:29:39;;;;;;;3.97;1.60;;;19.60;74.30;;;;;;5046705;28;20025;-77
2022/08/10 03:32:07;;;;;;;5.95;2.35;;;19.50;74.20;;;;;;5029794;28;20041;-78
2022/08/10 03:34:35;;;;;;;3.80;1.70;;;19.50;74.10;;;;;;5027760;28;20036;-76
2022/08/10 03:37:00;;;;;;;2.90;1.60;;;19.50;74.10;;;;;;5027520;28;20071;-77
2022/08/10 03:39:27;;;;;;;3.75;1.95;;;19.50;74.10;;;;;;5028394;28;20033;-77
2022/08/10 03:41:57;;;;;;;1.90;1.67;;;19.50;74.70;;;;;;5028631;28;20112;-77
2022/08/10 03:44:27;;;;;;;4.80;2.20;;;19.50;74.20;;;;;;5031056;28;20517;-77
2022/08/10 03:46:54;;;;;;;2.53;1.60;;;19.50;74.80;;;;;;5032326;28;20037;-77
2022/08/10 03:49:20;;;;;;;2.42;1.50;;;19.50;74.30;;;;;;5035406;28;20493;-77
2022/08/10 03:51:48;;;;;;;3.97;1.50;;;19.50;74.40;;;;;;5039012;28;20021;-77
2022/08/10 03:54:18;;;;;;;7.80;1.73;;;19.40;74.40;;;;;;5037810;28;20413;-77
2022/08/10 03:56:44;;;;;;;4.00;1.60;;;19.40;74.20;;;;;;5032802;28;20164;-77
2022/08/10 03:59:14;;;;;;;2.42;1.88;;;19.40;74.00;;;;;;5032192;28;20560;-77
2022/08/10 04:01:42;;;;;;;4.10;2.00;;;19.40;74.00;;;;;;5041451;28;20163;-78
2022/08/10 04:04:08;;;;;;;4.68;1.83;;;19.40;74.20;;;;;;5046134;28;20021;-79
2022/08/10 04:06:33;;;;;;;2.53;1.75;;;19.40;74.20;;;;;;5062297;28;20025;-78
2022/08/10 04:09:00;;;;;;;2.50;1.80;;;19.40;74.40;;;;;;5043398;28;20028;-78
2022/08/10 04:11:26;;;;;;;3.97;1.73;;;19.40;74.50;;;;;;5050003;28;20121;-78
2022/08/10 04:13:52;;;;;;;2.92;1.90;;;19.30;75.10;;;;;;5045897;28;20030;-77
2022/08/10 04:16:17;;;;;;;4.88;1.80;;;19.30;74.60;;;;;;5044382;28;20038;-79
2022/08/10 04:18:43;;;;;;;3.67;2.00;;;19.30;74.80;;;;;;5043701;28;20048;-78
2022/08/10 04:21:17;;;;;;;3.35;1.63;;;19.30;75.00;;;;;;5048980;28;20018;-78
2022/08/10 04:23:46;;;;;;;6.18;1.90;;;19.30;75.20;;;;;;5047054;28;20067;-78
2022/08/10 04:26:12;;;;;;;5.60;1.95;;;19.20;75.20;;;;;;5033598;28;20026;-78
2022/08/10 04:28:39;;;;;;;4.43;1.67;;;19.20;75.40;;;;;;5040230;28;20025;-78
2022/08/10 04:31:07;;;;;;;3.70;1.83;;;19.20;75.90;;;;;;5025233;28;20029;-76
2022/08/10 04:33:35;;;;;;;3.75;2.20;;;19.10;75.90;;;;;;5028536;28;20021;-76
2022/08/10 04:36:02;;;;;;;8.70;3.15;;;19.10;76.30;;;;;;5031610;28;20033;-76
2022/08/10 04:38:30;;;;;;;6.07;3.03;;;19.10;76.80;;;;;;5028604;28;20045;-77
2022/08/10 04:40:57;;;;;;;4.18;3.00;;;19.00;77.40;;;;;;5024743;28;20025;-77
2022/08/10 04:43:23;;;;;;;6.75;3.00;;;19.00;77.30;;;;;;5027953;28;20037;-77
2022/08/10 04:45:49;;;;;;;4.40;2.90;;;19.00;77.60;;;;;;5028458;28;20083;-79
2022/08/10 04:48:14;;;;;;;5.40;2.45;;;18.90;77.60;;;;;;5032416;28;20033;-78
2022/08/10 04:50:40;;;;;;;3.78;2.40;;;18.90;77.80;;;;;;5030670;28;20152;-78
2022/08/10 04:53:06;;;;;;;3.10;2.20;;;18.90;77.80;;;;;;5031465;28;20061;-78
2022/08/10 04:55:31;;;;;;;4.60;2.20;;;18.90;77.90;;;;;;5028821;28;20033;-77
2022/08/10 04:57:57;;;;;;;4.38;2.60;;;18.90;78.10;;;;;;5029420;28;20040;-77
2022/08/10 05:00:23;;;;;;;2.75;2.15;;;18.90;78.30;;;;;;5029693;28;20119;-77
2022/08/10 05:02:49;;;;;;;3.65;2.35;;;18.90;78.50;;;;;;5029183;28;20076;-77
2022/08/10 05:05:15;;;;;;;3.92;2.53;;;18.90;78.80;;;;;;5026320;28;20021;-78
2022/08/10 05:07:40;;;;;;;4.03;2.40;;;18.90;78.80;;;;;;5060513;28;20144;-78
2022/08/10 05:10:06;;;;;;;8.32;2.40;;;18.90;78.90;;;;;;5025405;28;20164;-77
2022/08/10 05:12:36;;;;;;;3.65;1.98;;;19.00;79.00;;;;;;5031191;28;20029;-76
2022/08/10 05:15:13;;;;;;;5.25;2.25;;;19.10;78.50;;;;;;5027031;28;20040;-73
2022/08/10 05:17:40;;;;;;;4.88;2.05;;;19.20;77.80;;;;;;5025622;28;20032;-73
2022/08/10 05:20:08;;;;;;;4.72;2.42;;;19.40;76.90;;;;;;5024060;28;20522;-72
2022/08/10 05:22:39;;;;;;;3.42;1.98;;;19.60;76.20;;;;;;5029015;28;20037;-73
2022/08/10 05:25:06;;;;;;;5.43;2.50;;;19.80;75.60;;;;;;5028546;28;20056;-72
2022/08/10 05:27:32;;;;;;;4.50;2.25;;;20.00;75.40;;;;;;5047950;28;20112;-74
2022/08/10 05:29:58;;;;;;;2.85;1.83;;;20.10;74.60;;;;;;5032058;28;20044;-74
2022/08/10 05:32:24;;;;;;;2.65;2.05;;;20.30;75.00;;;;;;5035038;28;20037;-74
2022/08/10 05:34:49;;;;;;;4.53;2.40;;;20.40;75.10;;;;;;5031934;28;20478;-76
2022/08/10 05:37:15;;;;;;;4.18;1.98;;;20.50;75.10;;;;;;5031215;28;20065;-77
2022/08/10 05:39:43;;;;;;;5.35;1.90;;;20.70;75.00;;;;;;5025405;28;20064;-76
2022/08/10 05:42:09;;;;;;;5.05;2.45;;;20.80;74.70;;;;;;5030106;28;20109;-76
2022/08/10 05:44:35;;;;;;;3.28;2.20;;;20.90;74.20;;;;;;5028983;28;20146;-76
2022/08/10 05:47:00;;;;;;;5.30;1.83;;;21.10;73.80;;;;;;5026716;28;20025;-76
2022/08/10 05:49:26;;;;;;;3.80;1.40;;;21.20;72.00;;;;;;5028246;28;20033;-76
2022/08/10 05:51:52;;;;;;;5.68;1.40;;;21.30;71.50;;;;;;5026025;28;20375;-76
2022/08/10 05:54:18;;;;;;;2.90;1.25;;;21.40;70.90;;;;;;5027954;28;20510;-76
2022/08/10 05:56:45;;;;;;;5.72;1.80;;;21.50;70.60;;;;;;5027288;28;20014;-77
2022/08/10 05:59:13;;;;;;;3.72;1.52;;;21.70;70.30;;;;;;5042723;23;20050;-76
2022/08/10 06:01:45;;;;;;;2.47;1.55;;;21.90;70.00;;;;;;5010122;28;20426;-76
2022/08/10 06:04:18;;;;;;;4.53;1.90;;;22.00;69.70;;;;;;5017280;28;20030;-76
2022/08/10 06:06:46;;;;;;;6.88;1.92;;;22.10;69.30;;;;;;5007012;28;20497;-72
2022/08/10 06:09:15;;;;;;;6.07;1.40;;;22.20;69.00;;;;;;5011152;28;20033;-71
2022/08/10 06:11:44;;;;;;;6.82;1.88;;;22.20;68.70;;;;;;5009503;28;20490;-74
2022/08/10 06:16:59;;;;;;;5.43;1.60;;;22.20;67.50;;;;;;5010519;28;20121;-74
2022/08/10 06:19:26;;;;;;;3.83;1.50;;;22.20;67.60;;;;;;5006722;28;20018;-74
2022/08/10 06:21:56;;;;;;;2.95;1.50;;;22.20;67.70;;;;;;5013456;28;20061;-74
2022/08/10 06:24:25;;;;;;;4.10;1.67;;;22.10;67.80;;;;;;5013707;28;20650;-74
2022/08/10 06:26:50;;;;;;;4.82;1.38;;;22.00;68.10;;;;;;5009381;28;20097;-75
2022/08/10 06:29:18;;;;;;;4.82;1.70;;;22.00;68.10;;;;;;5010374;28;20077;-75
2022/08/10 06:31:48;;;;;;;2.72;1.40;;;22.00;68.30;;;;;;5008216;28;20481;-75
2022/08/10 06:34:35;;;;;;;3.85;1.52;;;22.00;68.20;;;;;;5009270;28;20032;-75
2022/08/10 06:37:04;;;;;;;5.20;1.50;;;22.00;68.20;;;;;;5010194;28;20025;-75
2022/08/10 06:39:30;;;;;;;4.88;1.85;;;22.00;67.90;;;;;;5010010;28;20029;-75
2022/08/10 06:42:18;;;;;;;2.72;1.50;;;21.90;68.00;;;;;;5012676;28;20038;-75
2022/08/10 06:44:55;;;;;;;3.88;1.75;;;21.90;68.20;;;;;;5008379;28;20020;-76
2022/08/10 06:47:25;;;;;;;4.88;1.75;;;21.90;68.80;;;;;;5007828;28;20022;-76
2022/08/10 06:49:55;;;;;;;2.55;1.83;;;21.90;68.60;;;;;;5008838;28;20033;-76
2022/08/10 06:52:22;;;;;;;5.43;1.60;;;21.90;68.70;;;;;;5009943;28;20040;-75
2022/08/10 06:54:51;;;;;;;2.47;1.10;;;21.90;68.70;;;;;;5007385;28;20030;-75
2022/08/10 06:57:18;;;;;;;6.70;1.50;;;21.90;68.70;;;;;;5013631;28;20021;-75
2022/08/10 06:59:46;;;;;;;6.43;1.35;;;22.00;68.60;;;;;;5006528;28;20085;-75
2022/08/10 07:02:28;;;;;;;2.83;1.77;;;22.00;68.60;;;;;;5011862;28;20026;-74
2022/08/10 07:05:00;;;;;;;2.45;1.80;;;22.20;68.60;;;;;;5008525;28;20033;-75
2022/08/10 07:07:29;;;;;;;4.82;1.60;;;22.30;67.70;;;;;;5019691;28;20032;-75
2022/08/10 07:09:57;;;;;;;2.35;1.73;;;22.30;67.50;;;;;;5005312;28;20041;-69
2022/08/10 07:12:24;;;;;;;2.50;1.65;;;22.30;68.70;;;;;;5009231;28;20100;-68
2022/08/10 07:14:51;;;;;;;3.30;1.73;;;22.30;69.00;;;;;;5009663;28;20137;-68
2022/08/10 07:17:20;;;;;;;4.63;1.40;;;22.30;69.30;;;;;;5006904;28;20080;-68
2022/08/10 07:19:51;;;;;;;3.13;1.70;;;22.40;69.50;;;;;;5015377;28;20545;-70
2022/08/10 07:22:20;;;;;;;6.90;2.03;;;22.40;69.20;;;;;;5010995;28;20026;-74
2022/08/10 07:24:47;;;;;;;5.97;1.60;;;22.50;68.70;;;;;;5004754;28;20092;-75
2022/08/10 07:27:13;;;;;;;4.47;1.67;;;22.60;66.40;;;;;;5012291;28;20026;-74
2022/08/10 07:29:43;;;;;;;2.45;1.48;;;22.60;65.20;;;;;;5014040;28;20084;-75
2022/08/10 07:32:11;;;;;;;5.95;1.50;;;22.70;65.20;;;;;;5010142;28;20037;-69
2022/08/10 07:34:38;;;;;;;4.47;1.60;;;22.70;64.70;;;;;;5013380;28;20034;-74
2022/08/10 07:37:06;;;;;;;5.80;1.50;;;22.70;64.70;;;;;;5007590;28;20026;-75
2022/08/10 07:39:36;;;;;;;3.92;1.70;;;22.80;64.90;;;;;;5010571;28;20071;-75
2022/08/10 07:42:04;;;;;;;3.92;1.80;;;22.90;66.70;;;;;;5013972;28;20306;-74
2022/08/10 07:44:32;;;;;;;7.10;1.92;;;22.90;67.30;;;;;;5012446;28;20394;-71
2022/08/10 07:47:02;;;;;;;2.13;1.60;;;22.90;66.50;;;;;;5008432;28;20050;-74
2022/08/10 07:49:34;;;;;;;4.65;1.55;;;22.90;66.10;;;;;;5011464;28;20037;-75
2022/08/10 07:52:04;;;;;;;4.25;1.63;;;23.00;65.50;;;;;;5008360;28;20149;-75
2022/08/10 07:54:33;;;;;;;5.57;1.33;;;23.10;65.60;;;;;;5012643;28;20101;-74
2022/08/10 07:57:05;;;;;;;2.83;1.40;;;23.10;65.10;;;;;;5005559;28;20026;-73
2022/08/10 07:59:40;;;;;;;2.67;1.45;;;23.20;64.70;;;;;;5011271;28;20026;-73
2022/08/10 08:02:17;;;;;;;2.42;1.30;;;23.30;64.30;;;;;;5008838;28;20394;-74
2022/08/10 08:04:44;;;;;;;2.40;1.08;;;23.40;63.70;;;;;;5010232;28;20489;-73
2022/08/10 08:07:12;;;;;;;5.60;1.45;;;23.40;63.00;;;;;;5010421;28;20112;-74
2022/08/10 08:09:38;;;;;;;1.95;1.20;;;23.50;63.00;;;;;;5008313;28;20115;-73
2022/08/10 08:12:06;;;;;;;7.50;1.73;;;23.50;62.70;;;;;;5007624;28;20026;-74
2022/08/10 08:14:34;;;;;;;2.92;1.23;;;23.60;62.50;;;;;;5009553;28;20129;-73
2022/08/10 08:17:00;;;;;;;3.15;0.95;;;23.60;62.50;;;;;;5010313;28;20034;-74
2022/08/10 08:19:28;;;;;;;6.63;1.30;;;23.70;62.50;;;;;;5011824;28;20402;-73
2022/08/10 08:21:54;;;;;;;5.47;1.20;;;23.80;61.90;;;;;;5012909;28;20022;-73
2022/08/10 08:24:22;;;;;;;3.70;1.40;;;23.80;61.10;;;;;;5010567;28;20095;-73
2022/08/10 08:26:49;;;;;;;6.30;1.50;;;23.90;61.10;;;;;;5007677;28;20125;-73
2022/08/10 08:29:16;;;;;;;3.65;1.35;;;23.90;61.20;;;;;;5008475;28;20022;-73
2022/08/10 08:31:44;;;;;;;4.32;1.58;;;24.00;61.10;;;;;;5011321;28;20483;-73
2022/08/10 08:34:12;;;;;;;4.07;1.30;;;24.00;61.00;;;;;;5007958;28;20021;-73
2022/08/10 08:36:41;;;;;;;3.22;1.15;;;24.10;60.60;;;;;;5010403;28;20033;-72
2022/08/10 08:39:09;;;;;;;6.95;1.48;;;24.20;60.60;;;;;;5007953;28;20030;-73
2022/08/10 08:41:46;;;;;;;4.78;1.42;;;24.20;60.60;;;;;;5011027;28;20582;-73
2022/08/10 08:44:30;;;;;;;3.38;0.90;;;24.30;59.60;;;;;;5013988;28;20041;-73
2022/08/10 08:47:04;;;;;;;3.33;1.17;;;24.40;59.30;;;;;;5005177;28;20041;-73
2022/08/10 08:49:42;;;;;;;1.48;0.80;;;24.40;58.80;;;;;;5008965;28;20379;-74
2022/08/10 08:52:18;;;;;;;5.53;1.38;;;24.50;58.80;;;;;;5007892;28;20451;-74
2022/08/10 08:55:18;;;;;;;3.72;1.10;;;24.60;57.90;;;;;;5012670;28;20034;-73
2022/08/10 08:58:13;;;;;;;4.80;1.42;;;24.60;57.40;;;;;;5009227;28;20032;-73
2022/08/10 09:00:49;;;;;;;4.70;1.38;;;24.60;57.60;;;;;;5003030;28;20018;-74
2022/08/10 09:04:10;;;;;;;4.25;1.08;;;24.70;57.50;;;;;;5010559;28;20095;-74
2022/08/10 09:07:06;;;;;;;3.42;1.13;;;24.70;57.40;;;;;;4989846;28;20525;-74
2022/08/10 09:09:51;;;;;;;3.47;1.10;;;24.70;55.60;;;;;;5008926;28;20021;-74
2022/08/10 09:12:55;;;;;;;3.90;1.40;;;24.70;55.60;;;;;;5008111;28;20053;-75
2022/08/10 09:15:45;;;;;;;4.88;1.33;;;24.80;55.00;;;;;;5007920;28;20597;-74
2022/08/10 09:18:30;;;;;;;3.58;1.10;;;24.80;54.90;;;;;;5010872;28;20030;-73
2022/08/10 09:21:12;;;;;;;5.07;1.33;;;24.80;54.50;;;;;;5008184;28;20087;-75
2022/08/10 09:24:25;;;;;;;2.88;1.50;;;24.90;54.30;;;;;;5014199;28;20026;-74
2022/08/10 09:26:52;;;;;;;4.60;1.30;;;24.90;54.70;;;;;;5001520;28;20073;-74
2022/08/10 09:29:39;;;;;;;4.53;1.35;;;25.00;54.50;;;;;;5016197;28;20033;-73
2022/08/10 09:32:09;;;;;;;3.25;1.00;;;25.10;54.10;;;;;;5011111;28;20049;-74
2022/08/10 09:35:02;;;;;;;4.40;0.90;;;25.10;52.80;;;;;;5010592;28;20042;-73
2022/08/10 09:37:51;;;;;;;6.80;1.63;;;25.20;52.30;;;;;;5008604;28;20084;-73
2022/08/10 09:40:38;;;;;;;3.42;1.00;;;25.30;52.70;;;;;;5008201;28;20271;-76
2022/08/10 09:43:22;;;;;;;6.28;1.45;;;25.30;52.40;;;;;;5012673;28;20030;-75
2022/08/10 09:46:32;;;;;;;4.43;1.42;;;25.30;52.40;;;;;;5007608;28;20038;-75
2022/08/10 09:49:16;;;;;;;3.75;1.27;;;25.30;52.90;;;;;;5011334;28;20034;-75
2022/08/10 09:52:00;;;;;;;1.67;1.10;;;25.30;53.10;;;;;;5006398;28;20034;-74
2022/08/10 09:54:37;;;;;;;4.85;1.25;;;25.40;52.40;;;;;;5033166;28;20022;-73
2022/08/10 09:57:10;;;;;;;2.95;1.02;;;25.30;52.50;;;;;;5010196;28;20026;-74
2022/08/10 09:59:47;;;;;;;4.10;1.65;;;25.40;53.20;;;;;;5014017;28;20040;-73
2022/08/10 10:02:38;;;;;;;1.35;1.25;;;25.40;53.30;;;;;;5023369;28;20030;-75
2022/08/10 10:05:20;;;;;;;3.47;1.33;;;25.40;53.30;;;;;;5008867;28;20045;-75
2022/08/10 10:08:13;;;;;;;4.28;1.10;;;25.40;53.40;;;;;;5007587;28;20156;-75
2022/08/10 10:11:08;;;;;;;6.63;1.20;;;25.50;53.10;;;;;;5016652;28;20032;-75
2022/08/10 10:13:53;;;;;;;3.83;1.35;;;25.50;52.60;;;;;;5000608;28;20450;-75
2022/08/10 10:16:55;;;;;;;3.90;1.17;;;25.50;52.10;;;;;;5010909;28;20041;-74
2022/08/10 10:19:26;;;;;;;4.18;1.30;;;25.50;52.40;;;;;;5012640;28;20030;-73
2022/08/10 10:22:30;;;;;;;2.10;1.20;;;25.50;52.70;;;;;;5004847;28;20042;-76
2022/08/10 10:25:02;;;;;;;4.07;1.50;;;25.50;52.80;;;;;;4972073;28;20042;-74
2022/08/10 10:27:46;;;;;;;2.60;1.17;;;25.50;52.30;;;;;;5009613;28;20418;-73
2022/08/10 10:30:14;;;;;;;4.35;1.50;;;25.60;51.80;;;;;;5009934;28;20018;-74
2022/08/10 10:33:01;;;;;;;2.70;1.25;;;25.60;51.70;;;;;;5008440;28;20048;-74
2022/08/10 10:35:48;;;;;;;9.18;1.95;;;25.60;52.30;;;;;;5009197;28;20041;-74
2022/08/10 10:38:17;;;;;;;2.83;1.40;;;25.60;52.40;;;;;;5007742;28;20097;-74
2022/08/10 10:41:00;;;;;;;2.80;1.30;;;25.70;51.50;;;;;;5006772;28;20041;-74
2022/08/10 10:43:41;;;;;;;1.70;1.13;;;25.70;51.20;;;;;;5011879;28;20049;-74
2022/08/10 10:46:34;;;;;;;1.77;0.98;;;25.80;51.50;;;;;;5012276;28;20274;-74
2022/08/10 10:49:41;;;;;;;3.50;1.52;;;25.80;50.60;;;;;;5010050;28;20116;-74
2022/08/10 10:52:12;;;;;;;6.88;1.63;;;25.80;50.90;;;;;;5006409;28;20038;-74
2022/08/10 10:55:11;;;;;;;2.63;1.10;;;25.80;51.10;;;;;;5013096;28;20123;-74
2022/08/10 10:57:52;;;;;;;2.65;1.10;;;25.80;51.30;;;;;;5020698;28;20383;-74
2022/08/10 11:00:22;;;;;;;4.60;1.05;;;25.90;51.00;;;;;;5011741;28;20454;-74
2022/08/10 11:03:19;;;;;;;3.92;1.30;;;25.80;50.40;;;;;;5013190;28;20041;-74
2022/08/10 11:06:02;;;;;;;8.65;1.23;;;25.80;50.30;;;;;;5007180;28;20033;-74
2022/08/10 11:08:39;;;;;;;3.15;1.83;;;25.80;49.70;;;;;;5013567;28;20026;-74
2022/08/10 11:11:37;;;;;;;2.83;1.23;;;25.80;49.50;;;;;;5011293;28;20056;-74
2022/08/10 11:14:27;;;;;;;4.25;1.35;;;25.90;50.30;;;;;;5010198;28;20026;-75
2022/08/10 11:17:04;;;;;;;2.63;1.17;;;25.90;50.30;;;;;;5015415;28;20053;-74
2022/08/10 11:19:51;;;;;;;1.38;0.93;;;25.90;50.60;;;;;;5012554;28;20034;-75
2022/08/10 11:22:48;;;;;;;4.05;1.25;;;25.90;50.50;;;;;;5009349;28;20029;-75
2022/08/10 11:25:35;;;;;;;5.85;1.25;;;25.90;50.50;;;;;;5012668;28;20110;-74
2022/08/10 11:28:19;;;;;;;5.78;1.73;;;26.00;49.90;;;;;;5010720;28;20053;-75
2022/08/10 11:30:53;;;;;;;2.10;1.20;;;26.10;49.50;;;;;;5009960;28;20034;-74
2022/08/10 11:33:32;;;;;;;2.83;1.75;;;26.20;49.60;;;;;;5006874;28;20499;-75
2022/08/10 11:36:17;;;;;;;2.45;1.00;;;26.20;49.50;;;;;;5008417;28;20073;-73
2022/08/10 11:38:58;;;;;;;3.60;0.95;;;26.20;49.30;;;;;;5009561;28;20087;-74
2022/08/10 11:41:43;;;;;;;2.35;1.00;;;26.30;49.20;;;;;;5011917;28;20024;-74
2022/08/10 11:44:28;;;;;;;3.20;1.02;;;26.20;48.90;;;;;;5007245;28;20030;-74
2022/08/10 11:47:48;;;;;;;4.57;1.55;;;26.10;48.90;;;;;;5012386;28;20017;-74
2022/08/10 11:50:35;;;;;;;1.83;1.20;;;26.20;49.30;;;;;;4974955;28;20022;-75
2022/08/10 11:53:30;;;;;;;2.83;0.90;;;26.10;49.00;;;;;;5009108;28;20025;-75
2022/08/10 11:55:59;;;;;;;1.77;1.15;;;26.00;49.30;;;;;;5021401;28;20034;-75
2022/08/10 12:01:23;;;;;;;3.88;1.17;;;26.10;49.60;;;;;;5016919;28;20029;-79
2022/08/10 12:03:50;;;;;;;4.47;1.10;;;26.20;49.30;;;;;;5023039;28;20033;-78
2022/08/10 12:06:19;;;;;;;5.70;1.60;;;26.20;49.10;;;;;;5017280;28;20026;-77
2022/08/10 12:08:47;;;;;;;3.33;1.30;;;26.40;48.90;;;;;;5011199;28;21080;-77
2022/08/10 12:11:21;;;;;;;2.03;1.50;;;26.40;48.90;;;;;;5012022;28;20026;-77
2022/08/10 12:14:10;;;;;;;3.15;1.20;;;26.50;48.80;;;;;;5011798;28;20030;-78
2022/08/10 12:16:43;;;;;;;3.05;1.35;;;26.50;48.20;;;;;;5009830;28;20386;-78
2022/08/10 12:19:33;;;;;;;1.77;1.17;;;26.50;48.80;;;;;;5008847;28;20080;-77
2022/08/10 12:22:19;;;;;;;2.13;1.17;;;26.50;48.30;;;;;;5012497;28;20037;-77
2022/08/10 12:24:50;;;;;;;2.95;1.00;;;26.40;48.60;;;;;;5006273;28;20035;-77
2022/08/10 12:27:19;;;;;;;2.97;1.38;;;26.40;48.60;;;;;;5012106;28;20513;-78
2022/08/10 12:30:04;;;;;;;5.90;1.27;;;26.40;49.30;;;;;;5013210;28;20087;-77
2022/08/10 12:32:58;;;;;;;4.13;1.25;;;26.50;48.70;;;;;;5010456;28;20446;-78
2022/08/10 12:35:44;;;;;;;5.13;1.52;;;26.50;48.90;;;;;;5009755;28;20034;-77
2022/08/10 12:38:39;;;;;;;3.25;1.10;;;26.50;49.00;;;;;;5009892;28;20046;-76
2022/08/10 12:41:14;;;;;;;1.30;1.05;;;26.50;49.50;;;;;;5003627;28;20030;-76
2022/08/10 12:44:08;;;;;;;2.83;0.95;;;26.50;49.20;;;;;;5006845;28;20025;-76
2022/08/10 12:47:05;;;;;;;5.22;1.45;;;26.50;49.30;;;;;;5010996;28;20363;-77
2022/08/10 12:49:40;;;;;;;3.10;1.20;;;26.50;48.60;;;;;;5011327;28;20034;-77
2022/08/10 12:52:15;;;;;;;2.97;1.27;;;26.50;48.80;;;;;;5009805;28;20125;-76
2022/08/10 12:54:43;;;;;;;2.50;1.13;;;26.60;49.40;;;;;;5021221;28;20030;-76
2022/08/10 12:57:15;;;;;;;4.35;1.58;;;26.60;49.50;;;;;;5032228;28;20038;-76
2022/08/10 12:59:48;;;;;;;3.72;1.30;;;26.50;49.80;;;;;;5011812;28;20062;-76
2022/08/10 13:02:25;;;;;;;8.32;1.45;;;26.50;50.00;;;;;;5014803;28;20478;-76
2022/08/10 13:04:54;;;;;;;4.53;1.60;;;26.50;50.10;;;;;;5014453;28;20030;-79
2022/08/10 13:07:36;;;;;;;3.17;1.30;;;26.50;50.10;;;;;;5017696;28;20026;-78
2022/08/10 13:10:21;;;;;;;3.50;1.30;;;26.60;50.50;;;;;;5012738;28;20021;-76
2022/08/10 13:12:54;;;;;;;3.38;1.20;;;26.60;50.30;;;;;;5013476;28;20022;-77
2022/08/10 13:15:30;;;;;;;2.95;1.35;;;26.60;50.50;;;;;;5010814;28;20022;-77
2022/08/10 13:18:01;;;;;;;5.65;1.50;;;26.70;50.10;;;;;;5007361;28;20056;-76
2022/08/10 13:20:35;;;;;;;3.97;1.70;;;26.80;50.10;;;;;;5011661;28;20037;-77
2022/08/10 13:23:01;;;;;;;;;;;26.80;49.70;;;;;;5009939;28;20101;-76
2022/08/10 13:25:37;;;;;;;3.28;1.30;;;26.90;49.40;;;;;;5011714;28;19936;-78
2022/08/10 13:28:09;;;;;;;3.72;1.67;;;26.80;49.50;;;;;;5016908;28;20038;-77